Time;durP1;ratioP1;P1;durP2;ratioP2;P2;SDS_P1;SDS_P2;PMS_P1;PMS_P2;Temp;Humidity;BMP_temperature;BMP_pressure;BME280_temperature;BME280_humidity;BME280_pressure;Samples;Min_cycle;Max_cycle;Signal;HPM_P1;HPM_P2
2023/12/09 00:00:13;;;;;;;38.78;26.33;;;5.70;99.90;;;;;;4964696;28;20023;-74
2023/12/09 00:02:39;;;;;;;34.35;26.23;;;5.70;99.90;;;;;;4967408;28;20082;-73
2023/12/09 00:05:06;;;;;;;35.20;25.90;;;5.70;99.90;;;;;;4965078;28;20046;-74
2023/12/09 00:07:31;;;;;;;35.35;25.80;;;5.70;99.90;;;;;;4969123;28;20034;-74
2023/12/09 00:09:57;;;;;;;35.03;25.45;;;5.70;99.90;;;;;;4964675;28;20115;-74
2023/12/09 00:12:23;;;;;;;34.20;24.25;;;5.70;99.90;;;;;;4970576;28;20027;-73
2023/12/09 00:14:48;;;;;;;29.73;23.13;;;5.70;99.90;;;;;;4963182;28;20034;-74
2023/12/09 00:17:14;;;;;;;33.10;22.45;;;5.70;99.90;;;;;;4969469;28;20109;-73
2023/12/09 00:19:40;;;;;;;30.63;21.90;;;5.70;99.90;;;;;;4963386;28;20102;-74
2023/12/09 00:22:05;;;;;;;29.27;21.73;;;5.70;99.90;;;;;;4971312;28;20035;-74
2023/12/09 00:24:31;;;;;;;28.25;21.63;;;5.70;99.90;;;;;;4964956;28;20074;-73
2023/12/09 00:26:57;;;;;;;29.02;21.90;;;5.70;99.90;;;;;;4951836;28;20031;-73
2023/12/09 00:29:22;;;;;;;30.75;22.80;;;5.70;99.90;;;;;;4947696;28;20015;-74
2023/12/09 00:31:48;;;;;;;29.95;22.98;;;5.70;99.90;;;;;;4967020;28;20502;-74
2023/12/09 00:34:13;;;;;;;32.80;23.05;;;5.60;99.90;;;;;;4963499;28;20476;-74
2023/12/09 00:36:39;;;;;;;34.33;25.25;;;5.60;99.90;;;;;;4965350;28;20111;-74
2023/12/09 00:39:05;;;;;;;32.50;24.73;;;5.60;99.90;;;;;;4948657;28;20019;-73
2023/12/09 00:41:31;;;;;;;31.92;25.27;;;5.60;99.90;;;;;;4965934;28;20038;-74
2023/12/09 00:43:56;;;;;;;33.70;24.33;;;5.70;99.90;;;;;;4964710;28;20037;-74
2023/12/09 00:46:22;;;;;;;33.00;24.58;;;5.70;99.90;;;;;;4964482;28;20062;-74
2023/12/09 00:48:48;;;;;;;31.05;23.63;;;5.70;99.90;;;;;;4965407;28;20023;-73
2023/12/09 00:51:13;;;;;;;30.58;22.27;;;5.60;99.90;;;;;;4965047;28;20034;-74
2023/12/09 00:53:39;;;;;;;30.38;23.38;;;5.60;99.90;;;;;;4968977;28;20038;-73
2023/12/09 00:56:05;;;;;;;31.65;23.15;;;5.60;99.90;;;;;;4966803;28;20029;-74
2023/12/09 00:58:31;;;;;;;32.50;25.13;;;5.60;99.90;;;;;;4970478;28;20038;-74
2023/12/09 01:00:57;;;;;;;31.30;23.73;;;5.60;99.90;;;;;;4949303;28;20398;-74
2023/12/09 01:03:22;;;;;;;34.65;23.67;;;5.60;99.90;;;;;;4972114;28;20481;-74
2023/12/09 01:05:48;;;;;;;35.72;24.92;;;5.60;99.90;;;;;;4966642;28;20489;-74
2023/12/09 01:08:14;;;;;;;30.75;23.13;;;5.60;99.90;;;;;;4972453;28;20401;-73
2023/12/09 01:10:39;;;;;;;32.85;23.33;;;5.60;99.90;;;;;;4969146;28;20076;-74
2023/12/09 01:13:06;;;;;;;36.35;24.42;;;5.60;99.90;;;;;;4970404;28;20031;-74
2023/12/09 01:15:32;;;;;;;32.22;24.58;;;5.50;99.90;;;;;;4964313;28;20026;-74
2023/12/09 01:17:57;;;;;;;31.73;23.38;;;5.60;99.90;;;;;;4956136;28;20035;-73
2023/12/09 01:20:24;;;;;;;28.40;21.83;;;5.50;99.90;;;;;;4965109;28;20031;-74
2023/12/09 01:22:50;;;;;;;29.30;22.85;;;5.60;99.90;;;;;;4972202;28;20046;-74
2023/12/09 01:25:16;;;;;;;32.17;22.95;;;5.60;99.90;;;;;;4966683;28;20023;-74
2023/12/09 01:27:41;;;;;;;32.05;23.15;;;5.60;99.90;;;;;;4969979;28;20031;-74
2023/12/09 01:30:07;;;;;;;29.65;22.88;;;5.60;99.90;;;;;;4965574;28;20082;-74
2023/12/09 01:32:33;;;;;;;27.85;22.30;;;5.50;99.90;;;;;;4965290;28;20533;-74
2023/12/09 01:34:59;;;;;;;26.30;21.27;;;5.50;99.90;;;;;;4950788;29;20027;-74
2023/12/09 01:37:24;;;;;;;28.63;22.13;;;5.50;99.90;;;;;;4970405;28;20441;-74
2023/12/09 01:39:50;;;;;;;31.00;24.25;;;5.40;99.90;;;;;;4952826;28;20063;-74
2023/12/09 01:42:16;;;;;;;32.67;23.70;;;5.50;99.90;;;;;;4954290;28;20092;-74
2023/12/09 01:44:41;;;;;;;24.95;21.33;;;5.50;99.90;;;;;;4965996;28;20027;-73
2023/12/09 01:47:07;;;;;;;27.10;21.58;;;5.50;99.90;;;;;;4967159;28;20062;-73
2023/12/09 01:49:34;;;;;;;30.20;22.88;;;5.50;99.90;;;;;;4968195;28;20106;-73
2023/12/09 01:52:01;;;;;;;29.83;20.83;;;5.40;99.90;;;;;;4956391;28;20121;-74
2023/12/09 01:54:28;;;;;;;28.92;21.05;;;5.40;99.90;;;;;;4964164;28;20033;-73
2023/12/09 01:56:55;;;;;;;28.35;19.85;;;5.40;99.90;;;;;;4970942;28;20355;-73
2023/12/09 01:59:22;;;;;;;24.60;21.25;;;5.30;99.90;;;;;;4964439;28;20102;-74
2023/12/09 02:01:48;;;;;;;27.10;20.75;;;5.30;99.90;;;;;;4970056;28;20031;-73
2023/12/09 02:04:15;;;;;;;26.85;20.15;;;5.20;99.90;;;;;;4965284;28;20077;-74
2023/12/09 02:06:41;;;;;;;27.55;19.95;;;5.20;99.90;;;;;;4968154;28;20027;-73
2023/12/09 02:09:07;;;;;;;24.95;18.80;;;5.20;99.90;;;;;;4967122;28;20170;-74
2023/12/09 02:11:50;;;;;;;27.10;19.08;;;5.20;99.90;;;;;;4968034;28;20038;-73
2023/12/09 02:14:42;;;;;;;25.65;19.10;;;5.20;99.90;;;;;;4964007;28;20489;-74
2023/12/09 02:17:13;;;;;;;23.23;16.80;;;5.20;99.90;;;;;;4967944;28;20501;-74
2023/12/09 02:19:40;;;;;;;22.40;17.42;;;5.30;99.90;;;;;;4966458;28;20540;-73
2023/12/09 02:22:08;;;;;;;22.88;17.35;;;5.30;99.90;;;;;;4967481;28;20023;-74
2023/12/09 02:24:34;;;;;;;21.08;16.88;;;5.30;99.90;;;;;;4967081;28;20034;-74
2023/12/09 02:27:12;;;;;;;19.10;15.18;;;5.20;99.90;;;;;;4965209;28;20028;-74
2023/12/09 02:30:06;;;;;;;21.75;17.40;;;5.20;99.90;;;;;;4949548;28;20488;-74
2023/12/09 02:32:35;;;;;;;17.85;15.13;;;5.10;99.90;;;;;;4970598;28;20065;-74
2023/12/09 02:35:02;;;;;;;17.30;14.60;;;5.10;99.90;;;;;;4964863;28;20055;-74
2023/12/09 02:37:30;;;;;;;20.20;14.15;;;5.10;99.90;;;;;;4968280;28;20031;-73
2023/12/09 02:39:57;;;;;;;13.52;11.55;;;5.10;99.90;;;;;;4966786;28;20027;-74
2023/12/09 02:42:24;;;;;;;12.30;11.10;;;5.20;99.90;;;;;;4966705;28;20035;-74
2023/12/09 02:44:50;;;;;;;12.40;11.20;;;5.20;99.90;;;;;;4949946;28;20058;-73
2023/12/09 02:47:16;;;;;;;13.30;11.60;;;5.20;99.90;;;;;;4964817;28;20125;-73
2023/12/09 02:49:43;;;;;;;13.05;11.68;;;5.20;99.90;;;;;;4964467;28;20029;-74
2023/12/09 02:52:10;;;;;;;11.20;9.43;;;5.10;99.90;;;;;;4966265;28;20030;-73
2023/12/09 02:54:35;;;;;;;8.90;8.10;;;5.10;99.90;;;;;;4965730;28;20054;-73
2023/12/09 02:57:01;;;;;;;7.93;7.20;;;5.20;99.90;;;;;;4968375;28;20105;-74
2023/12/09 02:59:28;;;;;;;7.03;6.22;;;5.20;99.90;;;;;;4966127;28;20027;-73
2023/12/09 03:01:54;;;;;;;6.55;5.95;;;5.30;99.90;;;;;;4967847;28;20046;-73
2023/12/09 03:04:20;;;;;;;9.60;6.43;;;5.30;99.90;;;;;;4966951;28;20025;-74
2023/12/09 03:06:46;;;;;;;6.90;5.90;;;5.30;99.90;;;;;;4967367;28;20513;-73
2023/12/09 03:09:11;;;;;;;9.57;6.15;;;5.30;99.90;;;;;;4966103;28;20026;-74
2023/12/09 03:11:37;;;;;;;9.43;8.48;;;5.30;99.90;;;;;;4963572;28;20046;-74
2023/12/09 03:14:03;;;;;;;12.70;10.75;;;5.30;99.90;;;;;;4966169;28;20031;-74
2023/12/09 03:16:28;;;;;;;10.75;9.70;;;5.30;99.90;;;;;;4967092;28;20500;-74
2023/12/09 03:18:54;;;;;;;8.32;6.18;;;5.30;99.90;;;;;;4948690;28;20031;-74
2023/12/09 03:21:20;;;;;;;6.75;6.03;;;5.30;99.90;;;;;;4965667;28;20023;-73
2023/12/09 03:23:46;;;;;;;6.20;5.60;;;5.30;99.90;;;;;;4966928;28;20031;-74
2023/12/09 03:26:16;;;;;;;5.75;5.25;;;5.30;99.90;;;;;;4948725;28;20030;-74
2023/12/09 03:28:42;;;;;;;6.43;5.82;;;5.30;99.90;;;;;;4946025;28;20031;-74
2023/12/09 03:31:10;;;;;;;5.30;4.90;;;5.40;99.90;;;;;;4965324;28;20074;-74
2023/12/09 03:33:36;;;;;;;5.65;5.05;;;5.40;99.90;;;;;;4968364;28;20065;-73
2023/12/09 03:36:02;;;;;;;5.45;4.88;;;5.50;99.90;;;;;;4955031;28;20561;-74
2023/12/09 03:38:28;;;;;;;9.07;8.38;;;5.50;99.90;;;;;;4965564;28;20501;-73
2023/12/09 03:40:54;;;;;;;10.35;8.80;;;5.40;99.90;;;;;;4965341;28;20091;-74
2023/12/09 03:43:19;;;;;;;10.70;9.60;;;5.40;99.90;;;;;;4969354;28;20536;-74
2023/12/09 03:45:45;;;;;;;10.93;9.82;;;5.40;99.90;;;;;;4962437;28;20482;-73
2023/12/09 03:48:11;;;;;;;10.52;9.63;;;5.30;99.90;;;;;;4966086;28;20031;-74
2023/12/09 03:50:36;;;;;;;10.63;9.70;;;5.30;99.90;;;;;;4963813;28;20027;-74
2023/12/09 03:53:02;;;;;;;11.85;10.65;;;5.30;99.90;;;;;;4969246;28;20375;-74
2023/12/09 03:55:28;;;;;;;11.75;10.65;;;5.30;99.90;;;;;;4947349;28;20403;-73
2023/12/09 03:57:53;;;;;;;9.65;8.70;;;5.20;99.90;;;;;;4966857;28;20039;-74
2023/12/09 04:00:19;;;;;;;8.50;7.70;;;5.30;99.90;;;;;;4965178;28;20038;-74
2023/12/09 04:02:45;;;;;;;7.15;5.65;;;5.30;99.90;;;;;;4966730;28;20405;-74
2023/12/09 04:05:11;;;;;;;8.73;6.93;;;5.30;99.90;;;;;;4964417;28;20111;-73
2023/12/09 04:07:36;;;;;;;8.95;8.05;;;5.30;99.90;;;;;;4949768;28;20027;-73
2023/12/09 04:10:03;;;;;;;9.00;8.27;;;5.30;99.90;;;;;;4947574;28;20032;-74
2023/12/09 04:12:29;;;;;;;9.65;8.63;;;5.20;99.90;;;;;;4968859;28;20034;-74
2023/12/09 04:14:54;;;;;;;9.88;8.98;;;5.20;99.90;;;;;;4962195;28;20086;-73
2023/12/09 04:17:21;;;;;;;9.75;8.75;;;5.20;99.90;;;;;;4948820;28;20404;-74
2023/12/09 04:19:47;;;;;;;9.05;7.40;;;5.20;99.90;;;;;;4961588;28;20119;-74
2023/12/09 04:22:13;;;;;;;6.95;6.35;;;5.30;99.90;;;;;;4969128;28;20118;-74
2023/12/09 04:24:42;;;;;;;7.93;7.22;;;5.30;99.90;;;;;;4965021;28;20019;-74
2023/12/09 04:27:07;;;;;;;7.43;6.82;;;5.20;99.90;;;;;;4966262;28;20030;-73
2023/12/09 04:29:33;;;;;;;7.05;6.55;;;5.20;99.90;;;;;;4962462;28;20398;-73
2023/12/09 04:31:59;;;;;;;7.45;6.82;;;5.20;99.90;;;;;;4968244;28;20055;-73
2023/12/09 04:34:24;;;;;;;8.43;7.63;;;5.20;99.90;;;;;;4967838;28;20074;-74
2023/12/09 04:36:50;;;;;;;8.48;7.45;;;5.20;99.90;;;;;;4968993;28;20041;-73
2023/12/09 04:39:16;;;;;;;7.63;7.00;;;5.20;99.90;;;;;;4964690;28;20034;-74
2023/12/09 04:41:42;;;;;;;7.22;6.63;;;5.20;99.90;;;;;;4965085;28;20034;-73
2023/12/09 04:44:08;;;;;;;7.47;6.50;;;5.20;99.90;;;;;;4966276;28;20122;-73
2023/12/09 04:46:34;;;;;;;8.20;7.40;;;5.10;99.90;;;;;;4966894;28;20027;-74
2023/12/09 04:49:00;;;;;;;7.15;6.50;;;5.00;99.90;;;;;;4969626;28;20015;-74
2023/12/09 04:51:26;;;;;;;6.80;6.10;;;5.00;99.90;;;;;;4968480;28;20117;-74
2023/12/09 04:53:52;;;;;;;6.90;6.30;;;4.80;99.90;;;;;;4965412;28;20072;-74
2023/12/09 04:56:18;;;;;;;6.10;5.50;;;4.90;99.90;;;;;;4964684;28;20015;-74
2023/12/09 04:58:44;;;;;;;5.93;5.53;;;4.90;99.90;;;;;;4968468;28;20031;-74
2023/12/09 05:01:10;;;;;;;6.28;5.78;;;5.00;99.90;;;;;;4961051;28;20165;-74
2023/12/09 05:03:36;;;;;;;8.23;6.80;;;5.00;99.90;;;;;;4966260;28;20619;-74
2023/12/09 05:06:04;;;;;;;7.65;6.15;;;5.00;99.90;;;;;;4963207;28;20469;-73
2023/12/09 05:08:30;;;;;;;5.28;4.90;;;5.00;99.90;;;;;;4947567;28;20094;-74
2023/12/09 05:10:56;;;;;;;6.18;5.32;;;5.10;99.90;;;;;;4964958;28;20023;-73
2023/12/09 05:13:22;;;;;;;5.43;4.47;;;5.00;99.90;;;;;;4967842;28;20029;-74
2023/12/09 05:15:48;;;;;;;4.60;4.30;;;5.10;99.90;;;;;;4961439;28;20398;-75
2023/12/09 05:18:14;;;;;;;5.75;5.15;;;5.10;99.90;;;;;;4954973;28;20031;-74
2023/12/09 05:20:40;;;;;;;5.75;5.25;;;5.10;99.90;;;;;;4964354;28;20030;-74
2023/12/09 05:23:06;;;;;;;6.75;6.10;;;5.10;99.90;;;;;;4965634;28;20385;-74
2023/12/09 05:25:32;;;;;;;6.47;5.97;;;5.00;99.90;;;;;;4962915;28;20032;-74
2023/12/09 05:27:58;;;;;;;6.60;5.55;;;5.00;99.90;;;;;;4967938;28;20028;-74
2023/12/09 05:30:24;;;;;;;6.30;5.18;;;5.00;99.90;;;;;;4963513;28;20022;-74
2023/12/09 05:32:50;;;;;;;5.18;4.78;;;5.00;99.90;;;;;;4965206;28;20394;-74
2023/12/09 05:35:15;;;;;;;4.78;4.38;;;5.00;99.90;;;;;;4947250;29;20137;-73
2023/12/09 05:37:41;;;;;;;5.03;4.63;;;5.00;99.90;;;;;;4968510;28;20466;-73
2023/12/09 05:40:08;;;;;;;6.22;5.70;;;5.00;99.90;;;;;;4967258;28;20398;-73
2023/12/09 05:42:33;;;;;;;5.90;4.70;;;4.90;99.90;;;;;;4968907;28;20031;-74
2023/12/09 05:44:59;;;;;;;7.07;5.00;;;4.90;99.90;;;;;;4967825;28;20539;-74
2023/12/09 05:47:25;;;;;;;5.85;5.35;;;4.80;99.90;;;;;;4953995;28;20023;-73
2023/12/09 05:49:51;;;;;;;5.53;5.15;;;4.70;99.90;;;;;;4970067;28;20046;-73
2023/12/09 05:52:17;;;;;;;6.15;5.70;;;4.60;99.90;;;;;;4954528;28;20015;-74
2023/12/09 05:54:42;;;;;;;6.38;5.80;;;4.60;99.90;;;;;;4962700;28;20050;-74
2023/12/09 05:57:08;;;;;;;6.47;5.97;;;4.50;99.90;;;;;;4975594;28;20086;-73
2023/12/09 05:59:34;;;;;;;6.00;5.53;;;4.50;99.90;;;;;;4965006;28;20023;-74
2023/12/09 06:02:00;;;;;;;6.30;5.70;;;4.50;99.90;;;;;;4969463;28;20458;-73
2023/12/09 06:04:25;;;;;;;5.32;4.93;;;4.40;99.90;;;;;;4969740;28;20071;-74
2023/12/09 06:06:51;;;;;;;4.82;4.53;;;4.30;99.90;;;;;;4969744;28;20042;-74
2023/12/09 06:09:17;;;;;;;9.63;6.13;;;4.30;99.90;;;;;;4973461;28;20038;-73
2023/12/09 06:11:42;;;;;;;6.72;6.07;;;4.30;99.90;;;;;;4967249;28;20129;-73
2023/12/09 06:14:08;;;;;;;6.03;5.63;;;4.20;99.90;;;;;;4977562;28;20027;-73
2023/12/09 06:16:34;;;;;;;5.25;4.80;;;4.10;99.90;;;;;;4969790;28;20037;-74
2023/12/09 06:18:59;;;;;;;5.70;5.30;;;3.90;99.90;;;;;;4947194;29;20042;-74
2023/12/09 06:21:25;;;;;;;5.88;5.47;;;3.60;99.90;;;;;;4965606;28;20114;-74
2023/12/09 06:23:52;;;;;;;7.68;5.95;;;3.60;99.90;;;;;;4966924;28;20474;-74
2023/12/09 06:26:18;;;;;;;5.93;5.43;;;3.50;99.90;;;;;;4967515;28;20052;-73
2023/12/09 06:28:44;;;;;;;6.05;5.18;;;3.50;99.90;;;;;;4966798;28;20353;-73
2023/12/09 06:31:12;;;;;;;5.93;5.53;;;3.60;99.90;;;;;;4966514;28;20058;-74
2023/12/09 06:33:38;;;;;;;5.53;5.05;;;3.70;99.90;;;;;;4972640;28;20050;-74
2023/12/09 06:36:05;;;;;;;5.53;5.03;;;3.80;99.90;;;;;;4965563;28;20035;-74
2023/12/09 06:38:33;;;;;;;5.70;5.30;;;3.70;99.90;;;;;;4969905;28;20050;-74
2023/12/09 06:40:59;;;;;;;5.28;4.78;;;3.60;99.90;;;;;;4960424;28;20022;-74
2023/12/09 06:43:24;;;;;;;6.05;5.28;;;3.60;99.90;;;;;;4954020;28;20037;-73
2023/12/09 06:45:50;;;;;;;5.60;5.15;;;3.50;99.90;;;;;;4964398;28;20027;-73
2023/12/09 06:48:16;;;;;;;5.43;5.00;;;3.40;99.90;;;;;;4965425;28;20019;-74
2023/12/09 06:50:43;;;;;;;7.47;4.82;;;3.50;99.90;;;;;;4965202;28;20106;-73
2023/12/09 06:53:13;;;;;;;4.97;4.47;;;3.50;99.90;;;;;;4957586;28;20374;-73
2023/12/09 06:55:39;;;;;;;5.93;4.93;;;3.60;99.90;;;;;;4955954;28;20129;-74
2023/12/09 06:58:04;;;;;;;4.85;4.45;;;3.70;99.90;;;;;;4973552;28;20127;-74
2023/12/09 07:00:30;;;;;;;6.53;4.38;;;3.70;99.90;;;;;;4954374;28;20035;-74
2023/12/09 07:02:56;;;;;;;5.90;5.40;;;3.70;99.90;;;;;;4970410;28;20035;-74
2023/12/09 07:05:21;;;;;;;6.47;5.97;;;3.70;99.90;;;;;;4965312;28;20059;-74
2023/12/09 07:07:49;;;;;;;6.40;5.53;;;3.70;99.90;;;;;;4971940;28;20058;-74
2023/12/09 07:10:14;;;;;;;7.00;6.28;;;3.70;99.90;;;;;;4961999;28;20023;-74
2023/12/09 07:12:40;;;;;;;8.18;5.88;;;3.70;99.90;;;;;;4952910;28;20037;-73
2023/12/09 07:15:08;;;;;;;7.80;6.95;;;3.60;99.90;;;;;;4961916;28;20090;-74
2023/12/09 07:17:33;;;;;;;7.22;5.55;;;3.60;99.90;;;;;;4973325;28;20027;-74
2023/12/09 07:19:59;;;;;;;5.95;5.38;;;3.70;99.90;;;;;;4964006;28;20031;-74
2023/12/09 07:22:25;;;;;;;9.00;6.22;;;3.70;99.90;;;;;;4964827;28;20062;-74
2023/12/09 07:24:51;;;;;;;12.27;7.38;;;3.70;99.90;;;;;;4963845;28;20492;-73
2023/12/09 07:27:17;;;;;;;10.68;6.80;;;3.70;99.90;;;;;;4965405;28;20445;-73
2023/12/09 07:29:43;;;;;;;7.93;6.03;;;3.70;99.90;;;;;;4947406;28;20031;-74
2023/12/09 07:32:09;;;;;;;6.10;5.50;;;3.70;99.90;;;;;;4925442;28;1255490;-73
2023/12/09 07:34:35;;;;;;;6.88;5.78;;;3.80;99.90;;;;;;4962737;28;20050;-73
2023/12/09 07:37:01;;;;;;;6.50;5.78;;;3.90;99.90;;;;;;4969247;28;20038;-74
2023/12/09 07:39:27;;;;;;;8.48;6.45;;;3.90;99.90;;;;;;4970254;28;20401;-74
2023/12/09 07:41:52;;;;;;;6.65;6.05;;;3.90;99.90;;;;;;4968413;28;20063;-73
2023/12/09 07:44:19;;;;;;;6.32;5.82;;;4.00;99.90;;;;;;4965327;28;20035;-74
2023/12/09 07:46:45;;;;;;;12.88;7.00;;;4.10;99.90;;;;;;4968696;28;20413;-74
2023/12/09 07:49:11;;;;;;;7.57;6.53;;;4.20;99.90;;;;;;4968083;28;20065;-73
2023/12/09 07:51:37;;;;;;;6.70;6.10;;;4.20;99.90;;;;;;4965277;28;20118;-74
2023/12/09 07:54:03;;;;;;;6.70;5.50;;;4.30;99.90;;;;;;4968076;28;20490;-74
2023/12/09 07:56:29;;;;;;;7.88;7.03;;;4.30;99.90;;;;;;4969298;28;20489;-73
2023/12/09 07:58:54;;;;;;;8.90;8.00;;;4.40;99.90;;;;;;4966308;28;20122;-73
2023/12/09 08:01:20;;;;;;;9.55;8.65;;;4.40;99.90;;;;;;4965046;28;20031;-73
2023/12/09 08:03:46;;;;;;;10.65;9.60;;;4.40;99.90;;;;;;4970288;28;20384;-73
2023/12/09 08:06:14;;;;;;;11.48;9.30;;;4.40;99.90;;;;;;4964857;28;20023;-73
2023/12/09 08:08:40;;;;;;;13.35;11.85;;;4.40;99.90;;;;;;4951585;28;20034;-74
2023/12/09 08:11:06;;;;;;;12.65;11.35;;;4.40;99.90;;;;;;4967611;28;20031;-73
2023/12/09 08:13:32;;;;;;;13.13;11.82;;;4.50;99.90;;;;;;4967873;28;20428;-74
2023/12/09 08:15:58;;;;;;;12.18;10.98;;;4.50;99.90;;;;;;4964075;28;20046;-73
2023/12/09 08:18:23;;;;;;;13.43;10.60;;;4.60;99.90;;;;;;4967257;28;20035;-73
2023/12/09 08:20:49;;;;;;;10.93;8.48;;;4.60;99.90;;;;;;4964151;28;20100;-74
2023/12/09 08:23:15;;;;;;;11.38;8.77;;;4.60;99.90;;;;;;4970037;28;20034;-73
2023/12/09 08:25:43;;;;;;;16.58;9.18;;;4.70;99.90;;;;;;4964779;28;20034;-73
2023/12/09 08:28:09;;;;;;;14.10;9.07;;;4.80;99.90;;;;;;4971304;28;21368;-73
2023/12/09 08:30:35;;;;;;;10.63;8.75;;;4.80;99.90;;;;;;4961377;28;20102;-73
2023/12/09 08:33:01;;;;;;;12.85;8.77;;;5.00;99.90;;;;;;4950837;28;20101;-73
2023/12/09 08:35:27;;;;;;;9.10;8.30;;;5.00;99.90;;;;;;4963915;28;20039;-73
2023/12/09 08:37:52;;;;;;;11.20;9.00;;;5.10;99.90;;;;;;4965983;28;20033;-74
2023/12/09 08:40:18;;;;;;;16.75;13.93;;;5.10;99.90;;;;;;4954096;28;20026;-73
2023/12/09 08:42:45;;;;;;;19.58;14.77;;;5.10;99.90;;;;;;4966711;28;20117;-73
2023/12/09 08:45:16;;;;;;;17.33;14.18;;;5.20;99.90;;;;;;4964072;28;20031;-73
2023/12/09 08:47:42;;;;;;;15.98;12.25;;;5.10;99.90;;;;;;4970616;28;20389;-73
2023/12/09 08:50:09;;;;;;;12.77;11.45;;;5.20;99.90;;;;;;4961406;28;20413;-73
2023/12/09 08:52:35;;;;;;;12.30;10.90;;;5.20;99.90;;;;;;4971449;28;20038;-73
2023/12/09 08:55:01;;;;;;;14.02;12.40;;;5.20;99.90;;;;;;4963637;28;20023;-73
2023/12/09 08:57:27;;;;;;;14.80;12.40;;;5.30;99.90;;;;;;4970160;28;20035;-74
2023/12/09 08:59:54;;;;;;;15.18;12.63;;;5.30;99.90;;;;;;4964503;28;20489;-74
2023/12/09 09:02:20;;;;;;;16.42;12.75;;;5.30;99.90;;;;;;4953445;28;20034;-74
2023/12/09 09:04:47;;;;;;;17.48;12.27;;;5.30;99.90;;;;;;4965460;28;20527;-74
2023/12/09 09:07:13;;;;;;;18.33;13.30;;;5.30;99.90;;;;;;4968613;28;20034;-74
2023/12/09 09:09:39;;;;;;;18.58;13.93;;;5.40;99.90;;;;;;4966881;28;20027;-73
2023/12/09 09:12:08;;;;;;;14.65;12.48;;;5.40;99.90;;;;;;4950465;28;20068;-73
2023/12/09 09:14:34;;;;;;;17.10;12.73;;;5.50;99.90;;;;;;4959887;28;20042;-73
2023/12/09 09:17:03;;;;;;;15.32;12.40;;;5.50;99.90;;;;;;4954567;28;20078;-73
2023/12/09 09:19:28;;;;;;;20.77;13.07;;;5.60;99.90;;;;;;4967741;28;20493;-74
2023/12/09 09:21:54;;;;;;;18.88;11.77;;;5.60;99.90;;;;;;4970662;28;20030;-73
2023/12/09 09:24:20;;;;;;;26.75;12.13;;;5.60;99.90;;;;;;4967741;28;20176;-74
2023/12/09 09:26:45;;;;;;;18.10;12.48;;;5.60;99.90;;;;;;4969291;28;20027;-73
2023/12/09 09:29:11;;;;;;;17.33;13.13;;;5.60;99.90;;;;;;4967567;28;20110;-74
2023/12/09 09:31:38;;;;;;;20.88;13.07;;;5.70;99.90;;;;;;4954239;28;20433;-73
2023/12/09 09:34:03;;;;;;;24.83;13.90;;;5.70;99.90;;;;;;4968218;28;20037;-73
2023/12/09 09:36:30;;;;;;;20.40;13.38;;;5.70;99.90;;;;;;4970285;28;20081;-74
2023/12/09 09:38:56;;;;;;;19.88;13.27;;;5.70;99.90;;;;;;4966482;28;20038;-74
2023/12/09 09:41:28;;;;;;;15.88;12.65;;;5.80;99.90;;;;;;4958466;28;20031;-74
2023/12/09 09:44:01;;;;;;;17.92;13.60;;;5.80;99.90;;;;;;4967757;28;20035;-74
2023/12/09 09:46:28;;;;;;;15.68;13.02;;;5.80;99.90;;;;;;4967293;28;20030;-73
2023/12/09 09:48:55;;;;;;;28.42;14.25;;;5.80;99.90;;;;;;4969068;28;20030;-74
2023/12/09 09:51:26;;;;;;;19.40;13.55;;;5.90;99.90;;;;;;4968816;28;20342;-74
2023/12/09 09:54:19;;;;;;;25.52;15.40;;;5.90;99.90;;;;;;4955878;28;20121;-73
2023/12/09 09:56:45;;;;;;;16.10;13.40;;;6.00;99.90;;;;;;4950657;28;20472;-74
2023/12/09 09:59:12;;;;;;;14.85;13.23;;;6.00;99.90;;;;;;4964838;28;20478;-74
2023/12/09 10:01:38;;;;;;;17.00;13.63;;;6.00;99.90;;;;;;4969871;28;20090;-74
2023/12/09 10:04:04;;;;;;;24.92;14.73;;;6.00;99.90;;;;;;4968926;28;20035;-74
2023/12/09 10:06:30;;;;;;;20.05;13.55;;;6.10;99.90;;;;;;4966926;28;20401;-74
2023/12/09 10:08:57;;;;;;;14.43;12.88;;;6.10;99.90;;;;;;4969751;28;20429;-74
2023/12/09 10:11:23;;;;;;;18.23;14.40;;;6.20;96.40;;;;;;4969659;28;20098;-74
2023/12/09 10:13:49;;;;;;;21.40;15.88;;;6.20;99.90;;;;;;4968753;28;20142;-74
2023/12/09 10:16:14;;;;;;;21.00;15.77;;;6.20;99.90;;;;;;4967551;28;20062;-74
2023/12/09 10:18:46;;;;;;;19.90;14.77;;;6.30;95.00;;;;;;4952728;28;20133;-74
2023/12/09 10:21:13;;;;;;;17.98;14.15;;;6.30;84.90;;;;;;4949892;28;20036;-74
2023/12/09 10:23:40;;;;;;;16.55;14.75;;;6.30;93.80;;;;;;4969702;28;20310;-74
2023/12/09 10:26:06;;;;;;;20.52;15.23;;;6.40;97.60;;;;;;4965508;28;20514;-74
2023/12/09 10:28:33;;;;;;;20.88;16.73;;;6.50;99.90;;;;;;4969644;28;20465;-74
2023/12/09 10:31:00;;;;;;;19.90;15.68;;;6.50;99.90;;;;;;4964485;28;20031;-75
2023/12/09 10:33:29;;;;;;;19.10;14.98;;;6.60;87.30;;;;;;4966429;28;20409;-74
2023/12/09 10:35:56;;;;;;;19.15;17.15;;;6.60;92.50;;;;;;4954800;28;20129;-74
2023/12/09 10:38:22;;;;;;;18.10;15.68;;;6.70;99.90;;;;;;4956337;28;20640;-74
2023/12/09 10:40:49;;;;;;;18.30;14.95;;;6.70;79.10;;;;;;4965836;28;20035;-74
2023/12/09 10:43:15;;;;;;;17.65;13.23;;;6.80;70.00;;;;;;4955791;28;20185;-74
2023/12/09 10:45:42;;;;;;;15.25;13.65;;;6.80;71.20;;;;;;4969768;28;20054;-74
2023/12/09 10:48:08;;;;;;;14.15;12.75;;;6.80;69.50;;;;;;4956698;28;20059;-74
2023/12/09 10:50:37;;;;;;;14.57;12.88;;;6.90;42.50;;;;;;4968697;28;20057;-74
2023/12/09 10:53:04;;;;;;;21.30;14.13;;;6.90;28.40;;;;;;4970211;28;20027;-74
2023/12/09 10:55:30;;;;;;;16.40;14.45;;;6.90;28.30;;;;;;4952749;28;20074;-74
2023/12/09 10:57:57;;;;;;;18.92;15.25;;;6.90;43.00;;;;;;4954623;28;20041;-74
2023/12/09 11:00:24;;;;;;;22.83;14.90;;;7.00;38.50;;;;;;4971635;28;20385;-74
2023/12/09 11:02:52;;;;;;;49.35;33.97;;;7.00;51.90;;;;;;4970704;28;20027;-77
2023/12/09 11:05:19;;;;;;;25.38;19.70;;;7.00;30.80;;;;;;4954617;28;20516;-77
2023/12/09 11:07:47;;;;;;;21.88;17.00;;;7.10;56.80;;;;;;4969773;28;20055;-77
2023/12/09 11:10:13;;;;;;;22.58;17.60;;;7.10;54.90;;;;;;4966236;28;20024;-76
2023/12/09 11:12:41;;;;;;;21.45;15.80;;;7.10;75.10;;;;;;4966061;28;20035;-76
2023/12/09 11:15:13;;;;;;;19.95;16.42;;;7.20;47.40;;;;;;4969406;28;20441;-76
2023/12/09 11:17:41;;;;;;;18.92;16.98;;;7.20;42.90;;;;;;4962645;28;20034;-74
2023/12/09 11:20:10;;;;;;;16.27;14.65;;;7.20;57.00;;;;;;4966834;28;20026;-74
2023/12/09 11:22:40;;;;;;;17.02;15.32;;;7.30;53.60;;;;;;4970556;28;20030;-74
2023/12/09 11:25:12;;;;;;;13.73;12.43;;;7.40;53.10;;;;;;4951359;28;20027;-74
2023/12/09 11:27:38;;;;;;;16.10;10.77;;;7.40;41.00;;;;;;4967343;28;20512;-74
2023/12/09 11:30:05;;;;;;;11.73;10.18;;;7.50;1.00;;;;;;4962133;28;20029;-74
2023/12/09 11:32:31;;;;;;;13.18;10.98;;;7.50;1.00;;;;;;4967339;28;20051;-74
2023/12/09 11:34:58;;;;;;;15.25;12.00;;;7.50;19.70;;;;;;4966997;28;20027;-74
2023/12/09 11:37:28;;;;;;;15.30;11.98;;;7.60;10.20;;;;;;4970307;28;20027;-74
2023/12/09 11:39:55;;;;;;;15.07;11.95;;;7.60;1.00;;;;;;4953987;28;20023;-76
2023/12/09 11:42:21;;;;;;;12.88;11.02;;;7.70;1.00;;;;;;4964941;28;20033;-76
2023/12/09 11:44:47;;;;;;;10.63;9.52;;;7.80;1.00;;;;;;4969635;28;20023;-76
2023/12/09 11:47:13;;;;;;;11.15;9.63;;;7.90;1.00;;;;;;4968200;28;20469;-77
2023/12/09 11:49:39;;;;;;;9.77;8.80;;;8.00;1.00;;;;;;4970652;28;20520;-76
2023/12/09 11:52:05;;;;;;;8.93;8.05;;;8.10;1.00;;;;;;4969385;28;20023;-78
2023/12/09 11:54:31;;;;;;;9.40;8.50;;;8.20;1.00;;;;;;4974610;28;20113;-77
2023/12/09 11:56:56;;;;;;;8.70;7.20;;;8.30;1.00;;;;;;4966449;28;20031;-77
2023/12/09 11:59:22;;;;;;;9.63;6.85;;;8.40;1.00;;;;;;4972543;28;20062;-74
2023/12/09 12:01:48;;;;;;;9.60;6.57;;;8.50;1.00;;;;;;4967987;28;20039;-74
2023/12/09 12:04:13;;;;;;;7.70;6.70;;;8.50;1.00;;;;;;4960642;28;20038;-74
2023/12/09 12:06:39;;;;;;;7.35;6.75;;;8.50;1.00;;;;;;4966109;28;20023;-74
2023/12/09 12:09:05;;;;;;;8.35;7.65;;;8.60;1.00;;;;;;4959814;28;20030;-74
2023/12/09 12:11:33;;;;;;;11.35;10.20;;;8.60;1.00;;;;;;4964085;28;20014;-74
2023/12/09 12:14:00;;;;;;;14.27;11.90;;;8.60;1.00;;;;;;4961618;28;20086;-77
2023/12/09 12:16:26;;;;;;;18.95;12.48;;;8.70;1.00;;;;;;4972280;28;20041;-77
2023/12/09 12:18:54;;;;;;;15.75;12.23;;;8.70;1.00;;;;;;4970702;28;20482;-77
2023/12/09 12:21:20;;;;;;;12.57;11.32;;;8.70;1.00;;;;;;4963659;28;20082;-74
2023/12/09 12:24:19;;;;;;;18.48;12.23;;;8.70;1.00;;;;;;4962028;28;20034;-74
2023/12/09 12:26:45;;;;;;;14.75;12.35;;;8.60;1.00;;;;;;4970662;28;20041;-74
2023/12/09 12:29:17;;;;;;;15.77;13.20;;;8.60;1.00;;;;;;4945591;28;20460;-74
2023/12/09 12:31:43;;;;;;;15.40;12.95;;;8.50;1.00;;;;;;4971516;28;20681;-74
2023/12/09 12:34:19;;;;;;;13.57;12.10;;;8.50;1.00;;;;;;4965326;28;20043;-74
2023/12/09 12:36:46;;;;;;;26.33;20.77;;;8.50;1.00;;;;;;4965856;28;20505;-73
2023/12/09 12:39:13;;;;;;;32.45;21.73;;;8.50;1.00;;;;;;4964529;28;20489;-74
2023/12/09 12:41:41;;;;;;;18.25;14.13;;;8.40;1.00;;;;;;4964537;28;20022;-74